Time;durP1;ratioP1;P1;durP2;ratioP2;P2;SDS_P1;SDS_P2;PMS_P1;PMS_P2;Temp;Humidity;BMP_temperature;BMP_pressure;BME280_temperature;BME280_humidity;BME280_pressure;Samples;Min_cycle;Max_cycle;Signal;HPM_P1;HPM_P2
2022/06/11 00:01:07;;;;;;;9.50;7.50;;;;;;;18.77;66.18;93322.38;4990898;28;20042;-76
2022/06/11 00:03:33;;;;;;;10.52;7.03;;;;;;;18.65;66.40;93311.13;4991495;28;20327;-76
2022/06/11 00:05:58;;;;;;;10.20;6.30;;;;;;;18.65;66.42;93317.28;4989741;28;20035;-76
2022/06/11 00:08:25;;;;;;;8.95;6.70;;;;;;;18.74;66.43;93311.59;4993729;28;20030;-76
2022/06/11 00:10:51;;;;;;;9.30;6.40;;;;;;;18.68;66.38;93305.75;4990345;28;20577;-75
2022/06/11 00:13:16;;;;;;;9.85;7.18;;;;;;;18.68;66.68;93310.38;4992884;28;20038;-76
2022/06/11 00:15:43;;;;;;;12.77;7.55;;;;;;;18.63;66.60;93303.41;4990648;28;20450;-77
2022/06/11 00:18:09;;;;;;;8.88;6.80;;;;;;;18.68;67.13;93324.59;4990677;28;20052;-75
2022/06/11 00:20:35;;;;;;;9.75;7.22;;;;;;;18.71;67.21;93323.13;4991474;28;20045;-75
2022/06/11 00:23:00;;;;;;;11.48;7.05;;;;;;;18.62;67.12;93296.50;4989136;28;20045;-77
2022/06/11 00:25:27;;;;;;;10.85;6.60;;;;;;;18.77;66.72;93318.94;4990340;28;20715;-76
2022/06/11 00:27:52;;;;;;;9.15;6.38;;;;;;;18.35;66.74;93244.78;4991993;28;20018;-75
2022/06/11 00:30:19;;;;;;;10.68;6.30;;;;;;;18.82;66.80;93315.88;4987887;28;20045;-77
2022/06/11 00:32:46;;;;;;;9.02;6.18;;;;;;;18.82;66.69;93315.88;4990660;28;20041;-76
2022/06/11 00:35:13;;;;;;;9.20;6.63;;;;;;;18.60;67.12;93298.00;4989570;28;20462;-78
2022/06/11 00:37:39;;;;;;;7.47;5.35;;;;;;;18.22;67.35;93280.44;4990901;28;20092;-76
2022/06/11 00:40:07;;;;;;;6.90;5.28;;;;;;;18.31;67.84;93323.97;4990801;28;20025;-76
2022/06/11 00:42:34;;;;;;;7.68;5.43;;;;;;;18.11;68.64;93319.94;4990230;28;20376;-76
2022/06/11 00:45:21;;;;;;;10.77;5.72;;;;;;;17.85;70.11;93329.69;4988880;28;21039;-77
2022/06/11 00:47:52;;;;;;;8.27;5.28;;;;;;;17.92;69.74;93310.94;4991356;28;20503;-77
2022/06/11 00:50:28;;;;;;;7.53;4.95;;;;;;;18.27;68.78;93317.78;4991059;28;20056;-77
2022/06/11 00:52:57;;;;;;;8.73;5.93;;;;;;;18.01;69.31;93307.97;4995502;28;20481;-76
2022/06/11 00:55:30;;;;;;;10.52;6.72;;;;;;;18.19;69.05;93316.16;4995379;28;20046;-77
2022/06/11 00:58:03;;;;;;;8.15;5.65;;;;;;;17.80;69.97;93315.78;5005621;28;20299;-76
2022/06/11 01:00:38;;;;;;;8.32;5.97;;;;;;;17.29;71.96;93312.97;4989270;28;20471;-76
2022/06/11 01:03:05;;;;;;;8.88;5.95;;;;;;;16.79;74.37;93315.00;4996341;28;20306;-76
2022/06/11 01:05:36;;;;;;;7.80;5.30;;;;;;;17.28;73.77;93316.78;4989489;28;20034;-76
2022/06/11 01:08:21;;;;;;;5.13;4.07;;;;;;;17.51;71.26;93320.13;4989250;28;20149;-76
2022/06/11 01:11:22;;;;;;;5.50;4.15;;;;;;;17.38;71.46;93326.88;4990709;28;20054;-76
2022/06/11 01:13:53;;;;;;;6.13;4.10;;;;;;;17.24;72.72;93316.75;4997423;28;20042;-76
2022/06/11 01:16:34;;;;;;;6.00;4.13;;;;;;;16.76;72.63;93254.00;4989155;28;21065;-76
2022/06/11 01:19:19;;;;;;;7.40;5.30;;;;;;;17.14;73.31;93320.09;4986291;28;20466;-77
2022/06/11 01:22:16;;;;;;;6.85;4.75;;;;;;;17.23;73.00;93309.06;4988447;28;20224;-75
2022/06/11 01:25:03;;;;;;;5.30;4.40;;;;;;;17.12;72.51;93311.59;4994009;28;20054;-76
2022/06/11 01:27:45;;;;;;;5.78;4.38;;;;;;;17.20;72.68;93309.81;4988397;28;20034;-76
2022/06/11 01:30:23;;;;;;;5.43;4.03;;;;;;;17.38;71.30;93303.47;5000560;28;20607;-76
2022/06/11 01:32:57;;;;;;;6.47;3.72;;;;;;;17.30;71.23;93314.53;4989655;28;20100;-76
2022/06/11 01:35:37;;;;;;;5.18;4.05;;;;;;;17.48;70.80;93320.88;4991667;28;20037;-75
2022/06/11 01:38:25;;;;;;;5.53;3.92;;;;;;;17.57;70.13;93330.19;4988266;28;20095;-76
2022/06/11 01:41:04;;;;;;;7.13;4.13;;;;;;;17.30;70.51;93309.94;4990046;28;20038;-77
2022/06/11 01:43:36;;;;;;;7.10;5.13;;;;;;;17.40;70.46;93324.63;4991117;28;20041;-76
2022/06/11 01:46:17;;;;;;;5.90;4.57;;;;;;;17.14;70.95;93309.34;4993006;28;20395;-76
2022/06/11 01:49:02;;;;;;;7.25;4.50;;;;;;;16.70;72.95;93327.94;4991174;28;20026;-76
2022/06/11 01:51:34;;;;;;;6.70;4.60;;;;;;;17.09;72.14;93325.75;4989728;28;20041;-76
2022/06/11 01:54:08;;;;;;;8.82;4.90;;;;;;;17.11;72.06;93318.13;4990277;28;20117;-77
2022/06/11 01:56:52;;;;;;;5.97;4.00;;;;;;;17.04;71.59;93318.78;4988719;28;20403;-75
2022/06/11 01:59:24;;;;;;;5.65;4.10;;;;;;;17.12;72.03;93325.00;4995028;28;20126;-76
2022/06/11 02:02:37;;;;;;;6.10;4.10;;;;;;;17.22;71.98;93329.00;4988654;28;20045;-76
2022/06/11 02:05:17;;;;;;;6.82;4.75;;;;;;;17.18;71.62;93328.97;4989133;28;20129;-76
2022/06/11 02:07:47;;;;;;;5.72;4.05;;;;;;;16.73;72.37;93303.03;4990821;28;20397;-76
2022/06/11 02:10:25;;;;;;;7.15;4.68;;;;;;;16.85;72.76;93326.22;4990454;28;20026;-76
2022/06/11 02:13:07;;;;;;;6.72;4.43;;;;;;;17.07;72.36;93323.44;4989377;28;20109;-76
2022/06/11 02:15:47;;;;;;;8.40;4.82;;;;;;;16.77;72.85;93320.72;4987472;28;20046;-76
2022/06/11 02:18:19;;;;;;;5.70;4.10;;;;;;;16.79;73.17;93325.75;4991980;28;20573;-76
2022/06/11 02:20:55;;;;;;;6.55;4.40;;;;;;;16.88;73.30;93326.25;4989330;28;20113;-77
2022/06/11 02:23:33;;;;;;;6.03;4.57;;;;;;;16.63;74.49;93325.91;4991292;28;20551;-76
2022/06/11 02:26:02;;;;;;;5.78;4.25;;;;;;;16.39;74.54;93298.72;4991011;28;20034;-76
2022/06/11 02:28:37;;;;;;;6.18;4.63;;;;;;;16.80;74.13;93330.00;4987896;28;20034;-76
2022/06/11 02:31:06;;;;;;;7.13;4.53;;;;;;;16.70;74.05;93333.31;4988938;28;20091;-76
2022/06/11 02:33:34;;;;;;;6.38;4.05;;;;;;;16.48;74.91;93326.06;4991445;28;20480;-77
2022/06/11 02:36:21;;;;;;;6.47;4.22;;;;;;;16.70;74.52;93336.00;4988906;28;20408;-77
2022/06/11 02:38:47;;;;;;;7.38;4.20;;;;;;;16.60;74.30;93315.13;4988147;28;20050;-76
2022/06/11 02:41:22;;;;;;;6.43;4.60;;;;;;;16.86;73.78;93333.91;4991193;28;20082;-76
2022/06/11 02:43:47;;;;;;;5.10;3.80;;;;;;;17.05;73.39;93331.09;4991698;28;20405;-76
2022/06/11 02:48:58;;;;;;;7.57;4.30;;;;;;;16.90;73.20;93329.34;4990523;28;20308;-75
2022/06/11 02:51:25;;;;;;;8.02;4.57;;;;;;;17.14;72.40;93334.31;4989319;28;20456;-76
2022/06/11 02:53:51;;;;;;;5.30;4.07;;;;;;;17.02;72.36;93309.53;4989219;28;20039;-77
2022/06/11 02:56:17;;;;;;;6.07;4.25;;;;;;;17.08;72.50;93326.88;4987086;28;20040;-76
2022/06/11 02:58:43;;;;;;;5.10;3.83;;;;;;;17.29;71.79;93329.88;4989094;28;20097;-76
2022/06/11 03:01:09;;;;;;;5.30;3.78;;;;;;;17.16;72.06;93321.25;4997696;28;20539;-77
2022/06/11 03:03:35;;;;;;;5.00;3.97;;;;;;;17.08;72.00;93333.03;4998731;28;20027;-76
2022/06/11 03:06:01;;;;;;;5.28;4.03;;;;;;;17.13;71.90;93334.63;4992057;28;20141;-77
2022/06/11 03:08:27;;;;;;;6.65;4.22;;;;;;;17.10;71.51;93336.16;4992642;28;20046;-76
2022/06/11 03:10:54;;;;;;;5.85;4.18;;;;;;;17.16;71.69;93337.38;4993797;28;20404;-77
2022/06/11 03:13:21;;;;;;;5.03;3.70;;;;;;;17.14;71.56;93320.88;4994725;28;20066;-77
2022/06/11 03:15:47;;;;;;;4.22;3.40;;;;;;;17.24;71.27;93350.91;4997971;28;20026;-76
2022/06/11 03:18:13;;;;;;;6.25;3.95;;;;;;;17.07;71.96;93350.28;4992981;28;20039;-75
2022/06/11 03:20:40;;;;;;;5.05;3.30;;;;;;;16.99;71.82;93331.78;4991199;28;20076;-76
2022/06/11 03:23:06;;;;;;;7.72;3.83;;;;;;;17.24;71.66;93351.69;4994641;28;20034;-76
2022/06/11 03:25:32;;;;;;;5.10;3.72;;;;;;;16.82;72.59;93337.69;4992749;28;20040;-76
2022/06/11 03:27:57;;;;;;;5.57;4.40;;;;;;;16.61;73.90;93360.41;4991553;28;20030;-75
2022/06/11 03:30:25;;;;;;;7.03;4.00;;;;;;;16.59;74.43;93356.53;4993323;28;20030;-76
2022/06/11 03:32:50;;;;;;;5.45;4.72;;;;;;;16.72;74.08;93349.84;4993358;28;20406;-75
2022/06/11 03:35:16;;;;;;;6.38;4.35;;;;;;;16.73;74.37;93357.50;4992657;28;20067;-76
2022/06/11 03:37:42;;;;;;;6.72;4.57;;;;;;;16.94;73.50;93346.28;4991891;28;20102;-75
2022/06/11 03:40:09;;;;;;;7.22;4.55;;;;;;;16.68;74.53;93347.06;4993790;28;20108;-76
2022/06/11 03:42:35;;;;;;;6.22;4.60;;;;;;;16.76;74.45;93347.97;4994092;28;20690;-76
2022/06/11 03:45:00;;;;;;;6.78;4.43;;;;;;;16.50;75.31;93337.22;4991961;28;20400;-76
2022/06/11 03:47:26;;;;;;;7.55;4.32;;;;;;;16.88;74.68;93355.78;4992960;28;20026;-76
2022/06/11 03:49:51;;;;;;;6.05;4.78;;;;;;;16.97;73.98;93339.41;4989892;28;20038;-76
2022/06/11 03:52:17;;;;;;;6.93;4.90;;;;;;;17.22;73.71;93345.91;4992988;28;20038;-76
2022/06/11 03:54:42;;;;;;;7.43;5.78;;;;;;;17.37;72.54;93344.94;4993009;28;20567;-76
2022/06/11 03:57:08;;;;;;;7.45;4.35;;;;;;;17.56;71.95;93349.34;4994108;28;20062;-76
2022/06/11 03:59:34;;;;;;;5.78;4.18;;;;;;;17.62;71.62;93353.28;4997317;28;20435;-76
2022/06/11 04:02:00;;;;;;;5.30;4.57;;;;;;;17.65;71.33;93347.16;4990302;28;20046;-76
2022/06/11 04:04:26;;;;;;;9.50;4.53;;;;;;;17.53;71.38;93350.09;4991425;28;20045;-76
2022/06/11 04:06:54;;;;;;;6.05;4.60;;;;;;;17.51;72.12;93363.13;4993124;28;20034;-75
2022/06/11 04:09:42;;;;;;;6.88;4.35;;;;;;;17.24;72.31;93338.25;4993536;28;20041;-76
2022/06/11 04:12:11;;;;;;;7.50;4.80;;;;;;;17.11;73.38;93358.41;4992104;28;20042;-76
2022/06/11 04:14:38;;;;;;;7.75;4.82;;;;;;;17.25;73.35;93360.53;4991977;28;20038;-76
2022/06/11 04:17:08;;;;;;;6.65;5.03;;;;;;;17.09;73.98;93361.47;4991382;28;20038;-76
2022/06/11 04:19:37;;;;;;;6.32;4.32;;;;;;;17.18;74.00;93367.38;4992893;28;20694;-76
2022/06/11 04:22:06;;;;;;;9.18;4.88;;;;;;;17.24;73.77;93369.72;4992611;28;20037;-76
2022/06/11 04:24:31;;;;;;;7.70;4.90;;;;;;;16.99;74.77;93362.09;4994525;28;20032;-76
2022/06/11 04:27:00;;;;;;;5.35;4.28;;;;;;;17.02;74.80;93372.09;4992114;28;20250;-76
2022/06/11 04:29:30;;;;;;;7.90;5.65;;;;;;;16.47;76.30;93375.53;4990944;28;20074;-75
2022/06/11 04:31:57;;;;;;;7.45;4.82;;;;;;;16.48;76.46;93367.09;4991212;28;20045;-78
2022/06/11 04:34:23;;;;;;;8.68;5.22;;;;;;;16.52;77.10;93377.91;4990425;28;20460;-75
2022/06/11 04:36:50;;;;;;;8.90;5.72;;;;;;;16.33;77.48;93355.38;4992048;28;20061;-77
2022/06/11 04:39:20;;;;;;;7.40;5.38;;;;;;;16.45;77.38;93377.78;4991388;28;20074;-77
2022/06/11 04:41:46;;;;;;;8.50;5.72;;;;;;;16.57;77.25;93381.06;4992852;28;20042;-76
2022/06/11 04:44:12;;;;;;;6.93;4.97;;;;;;;16.46;77.42;93382.03;4991210;28;20403;-75
2022/06/11 04:46:38;;;;;;;8.77;5.82;;;;;;;16.27;77.73;93383.63;4992700;28;20046;-77
2022/06/11 04:49:04;;;;;;;9.18;5.50;;;;;;;16.68;76.65;93391.94;4990728;28;20014;-76
2022/06/11 04:51:30;;;;;;;7.60;5.50;;;;;;;16.69;76.46;93390.81;4997829;28;20029;-76
2022/06/11 04:53:55;;;;;;;8.52;4.95;;;;;;;16.99;75.25;93377.44;4990821;28;20447;-77
2022/06/11 04:56:24;;;;;;;5.47;4.50;;;;;;;17.11;74.43;93394.09;4991382;28;20038;-76
2022/06/11 04:58:50;;;;;;;6.15;4.50;;;;;;;16.94;74.64;93388.50;4990433;28;20500;-77
2022/06/11 05:01:17;;;;;;;6.30;4.60;;;;;;;17.10;74.05;93391.78;4992523;28;20050;-75
2022/06/11 05:03:43;;;;;;;5.47;3.90;;;;;;;16.96;73.86;93386.22;4989883;28;20510;-76
2022/06/11 05:06:09;;;;;;;7.63;4.63;;;;;;;16.83;74.05;93411.72;4991335;28;20042;-76
2022/06/11 05:08:35;;;;;;;6.18;4.43;;;;;;;16.97;74.12;93409.25;4991013;28;20066;-75
2022/06/11 05:11:00;;;;;;;5.95;4.55;;;;;;;17.05;73.68;93392.09;4989334;28;20141;-76
2022/06/11 05:13:26;;;;;;;8.75;5.57;;;;;;;17.46;72.79;93414.53;4990623;28;20068;-76
2022/06/11 05:15:54;;;;;;;5.90;4.45;;;;;;;17.64;72.28;93420.13;4991973;28;20065;-77
2022/06/11 05:18:21;;;;;;;7.63;4.82;;;;;;;17.61;71.79;93422.41;4991102;28;20488;-76
2022/06/11 05:20:47;;;;;;;7.32;4.90;;;;;;;17.68;71.39;93410.19;4990838;28;20046;-76
2022/06/11 05:23:13;;;;;;;6.88;5.18;;;;;;;17.54;71.95;93411.59;4988441;28;20041;-76
2022/06/11 05:25:41;;;;;;;8.30;5.25;;;;;;;17.61;71.65;93394.75;4991983;28;20117;-77
2022/06/11 05:28:11;;;;;;;8.20;5.18;;;;;;;17.76;71.44;93415.28;4992751;28;20018;-76
2022/06/11 05:30:36;;;;;;;7.20;5.43;;;;;;;17.50;71.24;93369.66;4995848;28;20412;-76
2022/06/11 05:33:02;;;;;;;7.30;4.80;;;;;;;17.47;72.64;93411.50;4990643;28;20045;-75
2022/06/11 05:35:31;;;;;;;8.40;5.72;;;;;;;17.49;73.10;93425.34;4989537;28;20030;-76
2022/06/11 05:37:59;;;;;;;9.13;5.68;;;;;;;17.36;74.22;93432.06;4986553;28;20050;-76
2022/06/11 05:40:29;;;;;;;6.80;4.97;;;;;;;17.58;73.95;93431.22;4989799;28;20037;-76
2022/06/11 05:42:55;;;;;;;7.85;5.90;;;;;;;17.27;74.49;93425.41;5004240;28;20022;-76
2022/06/11 05:45:25;;;;;;;7.93;4.68;;;;;;;17.13;74.60;93440.22;4989296;28;20121;-76
2022/06/11 05:47:53;;;;;;;7.95;4.47;;;;;;;16.95;74.61;93439.19;4989506;28;20033;-76
2022/06/11 05:50:24;;;;;;;7.35;4.20;;;;;;;17.02;74.61;93441.16;4989080;28;20827;-76
2022/06/11 05:52:51;;;;;;;6.15;3.70;;;;;;;16.82;75.05;93439.75;4989890;28;20116;-76
2022/06/11 05:55:21;;;;;;;6.55;4.60;;;;;;;16.85;75.58;93445.16;4996254;28;20052;-75
2022/06/11 05:57:49;;;;;;;7.20;4.40;;;;;;;16.91;74.96;93438.34;4991673;28;20116;-76
2022/06/11 06:00:18;;;;;;;4.38;3.22;;;;;;;17.00;74.70;93446.91;4996598;28;20099;-76
2022/06/11 06:02:45;;;;;;;4.55;2.58;;;;;;;16.91;73.89;93445.63;4988994;28;20042;-75
2022/06/11 06:05:14;;;;;;;3.00;2.53;;;;;;;17.06;73.50;93456.19;4990344;28;20280;-76
2022/06/11 06:07:40;;;;;;;3.38;2.08;;;;;;;16.77;73.15;93451.53;4990163;28;20674;-76
2022/06/11 06:10:05;;;;;;;3.28;2.17;;;;;;;16.99;72.76;93456.13;4995926;28;20440;-77
2022/06/11 06:12:33;;;;;;;3.10;2.30;;;;;;;16.98;73.38;93446.50;4990512;28;20036;-76
2022/06/11 06:15:13;;;;;;;3.33;2.35;;;;;;;16.61;73.79;93450.91;4989417;28;20030;-76
2022/06/11 06:17:39;;;;;;;3.65;2.25;;;;;;;16.86;73.88;93457.47;4987685;28;20065;-76
2022/06/11 06:20:07;;;;;;;2.65;2.05;;;;;;;16.71;74.24;93444.94;4989318;28;20496;-76
2022/06/11 06:22:34;;;;;;;3.95;2.47;;;;;;;16.75;74.28;93443.88;4985465;28;20049;-76
2022/06/11 06:24:59;;;;;;;5.43;2.33;;;;;;;16.87;73.76;93459.00;4982973;28;20329;-76
2022/06/11 06:27:25;;;;;;;6.90;2.53;;;;;;;16.94;74.07;93456.41;4987810;28;20268;-76
2022/06/11 06:29:51;;;;;;;9.20;3.15;;;;;;;16.92;73.99;93465.97;4985868;28;20639;-76
2022/06/11 06:32:17;;;;;;;8.18;3.47;;;;;;;16.94;74.13;93467.16;4985966;28;20053;-75
2022/06/11 06:34:42;;;;;;;6.82;2.47;;;;;;;17.06;73.79;93472.31;4985994;28;20047;-76
2022/06/11 06:37:08;;;;;;;3.53;2.47;;;;;;;17.24;73.55;93477.22;4985510;28;20057;-76
2022/06/11 06:39:33;;;;;;;4.13;2.50;;;;;;;17.41;73.16;93479.38;4984031;28;20029;-76
2022/06/11 06:41:59;;;;;;;3.10;2.28;;;;;;;17.25;73.14;93452.69;4981821;28;20049;-76
2022/06/11 06:44:25;;;;;;;3.70;2.28;;;;;;;17.63;72.21;93467.75;4985487;28;20489;-77
2022/06/11 06:46:50;;;;;;;5.82;2.58;;;;;;;17.65;71.96;93475.47;4986706;28;20392;-76
2022/06/11 06:49:16;;;;;;;3.17;2.70;;;;;;;17.72;72.13;93479.00;4981611;28;20057;-75
2022/06/11 06:51:41;;;;;;;3.60;2.65;;;;;;;17.49;72.11;93454.91;4987588;28;20113;-74
2022/06/11 06:54:07;;;;;;;5.05;2.25;;;;;;;17.31;72.01;93459.28;4984468;28;20137;-76
2022/06/11 06:56:33;;;;;;;3.50;2.40;;;;;;;17.30;71.88;93432.78;4985070;28;20416;-76
2022/06/11 06:59:03;;;;;;;4.00;2.92;;;;;;;17.58;71.48;93478.84;4984836;28;20041;-76
2022/06/11 07:01:30;;;;;;;2.83;2.35;;;;;;;17.12;73.43;93480.84;4985556;28;20096;-76
2022/06/11 07:03:56;;;;;;;3.92;2.85;;;;;;;17.14;73.72;93471.34;4987583;28;20026;-76
2022/06/11 07:06:23;;;;;;;4.70;3.13;;;;;;;17.44;73.41;93475.97;4990162;28;20042;-76
2022/06/11 07:08:50;;;;;;;5.57;3.28;;;;;;;17.60;73.16;93460.41;4983579;28;20104;-76
2022/06/11 07:11:16;;;;;;;4.35;3.25;;;;;;;17.53;73.31;93476.47;4992183;28;20026;-77
2022/06/11 07:13:42;;;;;;;5.85;3.45;;;;;;;17.15;73.62;93475.59;4986847;28;20030;-75
2022/06/11 07:16:07;;;;;;;6.13;3.42;;;;;;;17.06;74.59;93480.38;4986464;28;20368;-76
2022/06/11 07:18:39;;;;;;;7.38;3.33;;;;;;;16.73;74.67;93474.88;4988551;28;20057;-76
2022/06/11 07:21:09;;;;;;;6.40;2.58;;;;;;;16.47;76.49;93477.53;4987347;28;20042;-76
2022/06/11 07:23:43;;;;;;;4.55;3.00;;;;;;;16.02;76.96;93425.34;4985526;28;20034;-76
2022/06/11 07:26:16;;;;;;;5.43;2.08;;;;;;;16.42;76.74;93491.25;4984532;28;20532;-76
2022/06/11 07:28:55;;;;;;;3.38;1.83;;;;;;;16.40;76.73;93493.50;4986279;28;20056;-75
2022/06/11 07:31:21;;;;;;;4.13;2.50;;;;;;;16.78;76.38;93493.38;4982348;28;20034;-76
2022/06/11 07:33:48;;;;;;;4.07;2.22;;;;;;;16.63;75.78;93487.00;4985516;28;20126;-76
2022/06/11 07:36:15;;;;;;;2.40;1.92;;;;;;;17.11;74.64;93501.56;4985576;28;20064;-77
2022/06/11 07:38:40;;;;;;;3.25;2.47;;;;;;;16.88;74.13;93444.44;4984848;28;20081;-76
2022/06/11 07:41:06;;;;;;;2.33;1.80;;;;;;;17.17;73.11;93492.09;4984821;28;20796;-76
2022/06/11 07:43:31;;;;;;;4.55;2.53;;;;;;;16.76;73.39;93495.66;4985551;28;20049;-76
2022/06/11 07:45:57;;;;;;;4.53;3.97;;;;;;;16.90;73.76;93505.84;4989650;28;20021;-76
2022/06/11 07:48:23;;;;;;;5.97;4.35;;;;;;;17.01;73.80;93502.19;4990591;28;20025;-75
2022/06/11 07:50:51;;;;;;;2.60;1.95;;;;;;;16.83;73.58;93452.78;4988311;28;20038;-76
2022/06/11 07:53:18;;;;;;;3.13;2.15;;;;;;;17.60;73.10;93506.91;4989465;28;20531;-76
2022/06/11 07:55:45;;;;;;;4.65;2.80;;;;;;;17.42;72.71;93505.88;4987550;28;20054;-75
2022/06/11 07:58:12;;;;;;;3.20;2.35;;;;;;;17.24;72.48;93504.09;4987940;28;20022;-76
2022/06/11 08:00:44;;;;;;;3.90;2.80;;;;;;;17.00;74.74;93495.28;4988983;28;20018;-77
2022/06/11 08:03:10;;;;;;;4.25;2.88;;;;;;;16.77;74.14;93481.06;4986886;28;20133;-76
2022/06/11 08:05:36;;;;;;;3.58;2.78;;;;;;;16.47;74.99;93477.53;4988717;28;20048;-76
2022/06/11 08:08:03;;;;;;;6.22;3.60;;;;;;;16.75;75.60;93489.50;4986796;28;20992;-76
2022/06/11 08:10:29;;;;;;;4.07;3.15;;;;;;;16.79;75.48;93483.41;4990182;28;20543;-75
2022/06/11 08:12:55;;;;;;;4.75;2.45;;;;;;;16.95;74.06;93484.84;4988723;28;20499;-77
2022/06/11 08:15:20;;;;;;;4.70;3.22;;;;;;;17.34;73.50;93492.72;4988714;28;20026;-76
2022/06/11 08:17:46;;;;;;;2.88;2.17;;;;;;;17.44;73.73;93486.72;4986792;28;20038;-76
2022/06/11 08:20:15;;;;;;;4.15;2.20;;;;;;;17.89;73.08;93509.97;4987879;28;20042;-76
2022/06/11 08:22:40;;;;;;;5.15;2.55;;;;;;;17.85;73.17;93491.06;4989315;28;20030;-77
2022/06/11 08:25:06;;;;;;;5.30;2.88;;;;;;;17.56;73.74;93505.31;4985984;28;20034;-76
2022/06/11 08:27:32;;;;;;;5.68;3.40;;;;;;;17.64;73.58;93506.97;4990792;28;20025;-76
2022/06/11 08:29:57;;;;;;;5.45;3.20;;;;;;;17.62;73.12;93503.84;4986526;28;20038;-76
2022/06/11 08:32:22;;;;;;;4.22;3.40;;;;;;;17.65;74.53;93497.75;4980669;28;20195;-76
2022/06/11 08:34:48;;;;;;;4.60;3.53;;;;;;;17.87;72.58;93486.13;4990122;28;20522;-76
2022/06/11 08:37:15;;;;;;;3.33;2.70;;;;;;;18.09;73.18;93499.84;4986703;28;20904;-75
2022/06/11 08:39:41;;;;;;;5.00;3.47;;;;;;;17.98;75.04;93500.50;4987805;28;20534;-76
2022/06/11 08:42:26;;;;;;;4.40;3.53;;;;;;;17.77;73.75;93500.22;4988282;28;20034;-76
2022/06/11 08:44:52;;;;;;;5.78;3.15;;;;;;;17.66;72.05;93482.38;4986781;28;20140;-76
2022/06/11 08:47:21;;;;;;;4.97;3.55;;;;;;;17.74;72.14;93474.06;4988237;28;20037;-76
2022/06/11 08:49:49;;;;;;;4.47;3.83;;;;;;;17.82;71.93;93483.75;4988203;28;20085;-76
2022/06/11 08:52:23;;;;;;;4.20;3.03;;;;;;;17.98;69.29;93495.13;4986962;28;20488;-76
2022/06/11 08:54:49;;;;;;;4.40;3.20;;;;;;;17.75;68.42;93470.22;4987257;28;20124;-76
2022/06/11 08:57:22;;;;;;;3.67;3.20;;;;;;;17.73;67.89;93495.94;4986875;28;20404;-75
2022/06/11 08:59:59;;;;;;;4.57;2.90;;;;;;;17.86;67.05;93489.94;4986869;28;20053;-76
2022/06/11 09:02:30;;;;;;;3.35;2.63;;;;;;;17.75;67.04;93494.41;4987677;28;20030;-76
2022/06/11 09:05:22;;;;;;;6.45;3.00;;;;;;;17.65;67.49;93486.97;4979657;28;20047;-76
2022/06/11 09:08:03;;;;;;;4.57;2.95;;;;;;;17.67;68.50;93489.31;4967422;28;20042;-76
2022/06/11 09:10:57;;;;;;;3.83;2.88;;;;;;;17.63;68.47;93494.66;4967715;28;20096;-76
2022/06/11 09:13:46;;;;;;;4.45;3.17;;;;;;;18.18;67.78;93489.56;4965753;28;20586;-76
2022/06/11 09:16:45;;;;;;;3.50;2.67;;;;;;;18.35;68.25;93497.06;4967183;28;20765;-76
2022/06/11 09:19:29;;;;;;;4.72;3.20;;;;;;;18.32;67.67;93482.44;4966709;28;20034;-76
2022/06/11 09:22:02;;;;;;;3.90;2.88;;;;;;;18.36;66.10;93487.84;4981947;28;20018;-76
2022/06/11 09:24:46;;;;;;;4.97;2.97;;;;;;;18.46;64.60;93487.16;4986577;28;20072;-75
2022/06/11 09:27:31;;;;;;;4.18;2.72;;;;;;;18.51;66.08;93494.91;4987295;28;20118;-75
2022/06/11 09:30:13;;;;;;;5.88;3.42;;;;;;;18.56;65.57;93486.50;4986009;28;20037;-76
2022/06/11 09:32:52;;;;;;;5.60;3.10;;;;;;;18.88;64.35;93492.97;4987876;28;20122;-76
2022/06/11 09:35:29;;;;;;;5.97;3.35;;;;;;;18.77;62.96;93477.88;4988683;28;20037;-77
2022/06/11 09:38:16;;;;;;;4.45;3.08;;;;;;;18.78;61.96;93482.88;4986235;28;20731;-76
2022/06/11 09:40:53;;;;;;;3.33;2.72;;;;;;;18.82;60.88;93499.81;4985648;28;20034;-76
2022/06/11 09:43:41;;;;;;;3.60;2.97;;;;;;;18.78;61.72;93493.63;4987361;28;20527;-76
2022/06/11 09:46:12;;;;;;;4.22;3.35;;;;;;;19.07;62.61;93493.84;4991982;28;20048;-76
2022/06/11 09:49:08;;;;;;;5.10;3.20;;;;;;;19.19;61.57;93491.66;4988293;28;20022;-76
2022/06/11 09:51:42;;;;;;;5.50;3.45;;;;;;;19.14;60.62;93493.94;4988130;28;20648;-76
2022/06/11 09:54:25;;;;;;;5.47;2.78;;;;;;;19.13;59.23;93497.75;4984583;28;20065;-77
2022/06/11 09:57:23;;;;;;;6.00;3.85;;;;;;;19.14;60.75;93502.78;4985314;28;20045;-75
2022/06/11 10:00:02;;;;;;;6.22;4.38;;;;;;;19.40;60.10;93504.50;4986807;28;20168;-77
2022/06/11 10:05:25;;;;;;;6.30;4.30;;;;;;;19.41;61.22;93489.84;4985478;28;20042;-74
2022/06/11 10:07:57;;;;;;;6.80;3.17;;;;;;;18.99;60.95;93439.16;4987162;28;20030;-77
2022/06/11 10:10:26;;;;;;;4.20;3.45;;;;;;;19.55;58.91;93476.50;4989193;28;20037;-74
2022/06/11 10:12:57;;;;;;;5.50;3.45;;;;;;;19.51;59.34;93486.47;4989342;28;20088;-76
2022/06/11 10:15:39;;;;;;;5.28;3.63;;;;;;;19.59;61.53;93501.56;4966299;28;20433;-77
2022/06/11 10:18:17;;;;;;;4.05;3.08;;;;;;;19.41;60.88;93489.84;4983507;28;20038;-77
2022/06/11 10:20:55;;;;;;;4.25;3.60;;;;;;;19.50;60.17;93498.44;4987240;28;20061;-77
2022/06/11 10:23:46;;;;;;;6.45;4.05;;;;;;;19.03;59.71;93503.84;4984404;28;20037;-74
2022/06/11 10:26:31;;;;;;;5.60;3.00;;;;;;;18.77;61.39;93492.09;4991405;28;20041;-75
2022/06/11 10:29:39;;;;;;;3.35;2.90;;;;;;;19.09;59.61;93510.44;4986496;28;20568;-76
2022/06/11 10:32:13;;;;;;;4.65;3.22;;;;;;;19.53;59.21;93505.00;4991648;28;20042;-76
2022/06/11 10:34:44;;;;;;;4.03;3.30;;;;;;;19.50;60.39;93465.31;4984960;28;20120;-76
2022/06/11 10:37:43;;;;;;;3.08;2.40;;;;;;;19.83;58.37;93512.88;4981125;28;20081;-76
2022/06/11 10:40:21;;;;;;;4.68;2.50;;;;;;;19.56;58.97;93531.97;4987028;28;20127;-76
2022/06/11 10:42:46;;;;;;;3.60;2.70;;;;;;;18.92;61.18;93538.03;4990180;28;20129;-76
2022/06/11 10:45:16;;;;;;;5.43;2.30;;;;;;;18.71;64.12;93539.38;4985031;28;20038;-75
2022/06/11 10:47:46;;;;;;;2.63;2.03;;;;;;;18.33;66.34;93547.81;4983589;28;20141;-76
2022/06/11 10:50:12;;;;;;;3.13;2.53;;;;;;;18.11;68.29;93551.38;4985294;28;20270;-76
2022/06/11 10:52:44;;;;;;;4.15;2.47;;;;;;;17.71;71.11;93560.84;4984029;28;20512;-76
2022/06/11 10:55:18;;;;;;;4.07;3.05;;;;;;;17.66;71.40;93568.44;4985268;28;20057;-76
2022/06/11 10:57:48;;;;;;;4.35;3.35;;;;;;;17.40;73.18;93578.06;4982579;28;20076;-75
2022/06/11 11:00:46;;;;;;;3.55;1.85;;;;;;;17.24;73.49;93571.28;4988847;28;20048;-75
2022/06/11 11:03:18;;;;;;;3.20;2.20;;;;;;;17.69;72.83;93571.19;4966308;28;20600;-76
2022/06/11 11:06:11;;;;;;;2.33;2.03;;;;;;;17.90;71.32;93568.00;4982079;28;20046;-76
2022/06/11 11:08:51;;;;;;;4.45;2.20;;;;;;;18.12;70.41;93555.63;4997957;28;20092;-76
2022/06/11 11:11:16;;;;;;;4.85;2.53;;;;;;;18.30;71.28;93546.63;4985671;28;20500;-76
2022/06/11 11:13:45;;;;;;;4.25;2.75;;;;;;;18.61;70.22;93572.34;4983434;28;20105;-76
2022/06/11 11:16:15;;;;;;;1.92;1.73;;;;;;;18.70;69.04;93559.38;4986516;28;20033;-76
2022/06/11 11:18:53;;;;;;;3.58;2.30;;;;;;;18.87;69.06;93560.72;4979729;28;20052;-76
2022/06/11 11:21:27;;;;;;;5.75;1.83;;;;;;;18.88;69.99;93556.84;4990199;28;20052;-76
2022/06/11 11:23:58;;;;;;;2.97;1.52;;;;;;;18.94;69.60;93557.28;4986165;28;20042;-75
2022/06/11 11:26:35;;;;;;;1.58;1.48;;;;;;;19.02;69.19;93556.22;4990493;28;20833;-76
2022/06/11 11:29:09;;;;;;;1.80;1.45;;;;;;;19.06;68.62;93554.31;4990352;28;20061;-76
2022/06/11 11:32:04;;;;;;;2.13;1.70;;;;;;;19.27;66.71;93557.94;4982867;28;20046;-76
2022/06/11 11:34:32;;;;;;;2.17;1.50;;;;;;;19.30;65.37;93548.34;4983577;28;20038;-77
2022/06/11 11:37:21;;;;;;;2.72;1.80;;;;;;;19.44;65.05;93545.75;4973368;28;20026;-75
2022/06/11 11:40:02;;;;;;;4.68;2.20;;;;;;;19.43;66.38;93544.19;4963751;28;20065;-76
2022/06/11 11:42:39;;;;;;;2.25;1.92;;;;;;;19.54;66.46;93539.69;4988850;28;20385;-76
2022/06/11 11:45:26;;;;;;;2.15;1.95;;;;;;;19.54;66.11;93539.69;4988139;28;20491;-77
2022/06/11 11:48:01;;;;;;;3.80;1.70;;;;;;;19.62;64.13;93546.66;4987916;28;20125;-77
2022/06/11 11:50:34;;;;;;;3.90;1.77;;;;;;;19.59;64.16;93520.47;4986228;28;20458;-76
2022/06/11 11:53:18;;;;;;;2.80;1.95;;;;;;;19.72;63.58;93535.16;4986860;28;20069;-76
2022/06/11 11:55:55;;;;;;;1.85;1.58;;;;;;;19.88;62.27;93532.19;4987457;28;20674;-76
2022/06/11 11:58:39;;;;;;;1.77;1.30;;;;;;;19.85;65.05;93534.88;4989784;28;20050;-77
2022/06/11 12:01:08;;;;;;;2.53;1.75;;;;;;;19.75;66.42;93537.09;4990922;28;20040;-76